Time;durP1;ratioP1;P1;durP2;ratioP2;P2;SDS_P1;SDS_P2;PMS_P1;PMS_P2;Temp;Humidity;BMP_temperature;BMP_pressure;BME280_temperature;BME280_humidity;BME280_pressure;Samples;Min_cycle;Max_cycle;Signal;HPM_P1;HPM_P2
2022/08/07 00:02:18;;;;;;;24.02;13.05;;;;;;;20.31;83.03;94731.52;1658194;85;22037;-53
2022/08/07 00:04:46;;;;;;;16.15;12.47;;;;;;;20.32;83.09;94727.45;1663888;84;21042;-52
2022/08/07 00:07:14;;;;;;;28.40;13.55;;;;;;;20.31;83.12;94725.93;1668607;85;21073;-53
2022/08/07 00:09:42;;;;;;;21.33;11.95;;;;;;;20.28;83.15;94733.94;1640363;86;21031;-53
2022/08/07 00:12:10;;;;;;;21.05;12.78;;;;;;;20.26;83.34;94725.31;1633485;85;21079;-53
2022/08/07 00:14:38;;;;;;;27.58;14.25;;;;;;;20.23;83.57;94731.92;1654781;85;21765;-53
2022/08/07 00:17:07;;;;;;;23.05;13.53;;;;;;;20.18;83.67;94735.50;1679586;85;21045;-53
2022/08/07 00:19:34;;;;;;;23.90;13.93;;;;;;;20.19;83.73;94733.57;1674864;85;21023;-53
2022/08/07 00:22:02;;;;;;;21.20;13.62;;;;;;;20.19;83.60;94727.98;1678321;85;21034;-53
2022/08/07 00:24:31;;;;;;;21.93;13.13;;;;;;;20.20;83.51;94732.95;1642490;86;21005;-53
2022/08/07 00:26:59;;;;;;;20.88;13.55;;;;;;;20.21;83.53;94731.67;1668527;85;21495;-53
2022/08/07 00:29:28;;;;;;;22.65;13.53;;;;;;;20.22;83.62;94729.75;1681025;85;21058;-54
2022/08/07 00:31:58;;;;;;;19.10;13.55;;;;;;;20.23;83.49;94730.53;1660451;85;21025;-53
2022/08/07 00:34:26;;;;;;;24.07;13.58;;;;;;;20.23;83.58;94727.73;1658690;85;21031;-53
2022/08/07 00:36:54;;;;;;;16.05;12.73;;;;;;;20.26;83.64;94725.31;1653291;85;20987;-53
2022/08/07 00:39:22;;;;;;;24.87;14.98;;;;;;;20.31;83.49;94723.14;1669762;85;21096;-53
2022/08/07 00:41:53;;;;;;;32.25;20.80;;;;;;;20.37;83.47;94721.86;1670494;85;20963;-54
2022/08/07 00:44:21;;;;;;;28.65;19.65;;;;;;;20.43;83.93;94727.45;1652242;86;21070;-53
2022/08/07 00:46:50;;;;;;;28.25;19.15;;;;;;;20.50;84.18;94733.28;1633703;87;21048;-53
2022/08/07 00:49:19;;;;;;;25.75;19.95;;;;;;;20.56;83.97;94737.46;1651141;85;21074;-53
2022/08/07 00:51:47;;;;;;;24.85;16.95;;;;;;;20.60;83.88;94737.95;1648494;85;21905;-53
2022/08/07 00:54:15;;;;;;;30.00;20.35;;;;;;;20.66;83.75;94746.45;1658260;85;20967;-52
2022/08/07 00:56:44;;;;;;;27.95;15.83;;;;;;;20.70;83.84;94740.61;1618873;87;21535;-53
2022/08/07 00:59:12;;;;;;;22.30;14.50;;;;;;;20.74;83.39;94741.10;1649912;86;21026;-54
2022/08/07 01:01:40;;;;;;;24.15;15.45;;;;;;;20.70;83.04;94743.41;1643332;86;21078;-55
2022/08/07 01:04:08;;;;;;;21.30;15.05;;;;;;;20.66;83.01;94738.69;1612405;87;21150;-52
2022/08/07 01:06:37;;;;;;;19.12;13.30;;;;;;;20.66;83.14;94742.89;1653349;85;21106;-53
2022/08/07 01:09:06;;;;;;;19.52;15.03;;;;;;;20.68;83.27;94741.73;1658290;85;21451;-52
2022/08/07 01:11:34;;;;;;;22.62;14.18;;;;;;;20.68;83.42;94752.92;1659269;85;21560;-53
2022/08/07 01:14:01;;;;;;;31.62;21.45;;;;;;;20.66;83.55;94743.66;1685230;84;21013;-53
2022/08/07 01:16:30;;;;;;;23.87;19.17;;;;;;;20.67;83.96;94747.98;1631585;86;21867;-53
2022/08/07 01:18:58;;;;;;;33.00;22.60;;;;;;;20.68;84.20;94739.72;1663596;85;21699;-53
2022/08/07 01:21:26;;;;;;;27.87;21.45;;;;;;;20.72;85.08;94735.27;1641419;84;21065;-53
2022/08/07 01:23:57;;;;;;;27.37;21.17;;;;;;;20.81;86.59;94737.77;1663428;84;21550;-53
2022/08/07 01:26:25;;;;;;;25.72;21.23;;;;;;;20.88;87.02;94741.45;1670288;85;21601;-52
2022/08/07 01:28:52;;;;;;;26.55;21.62;;;;;;;20.96;87.33;94747.39;1664994;84;21233;-53
2022/08/07 01:31:30;;;;;;;32.98;23.70;;;;;;;21.00;87.59;94746.51;1669174;85;20975;-53
2022/08/07 01:33:56;;;;;;;28.10;23.07;;;;;;;21.04;88.05;94747.63;1663026;84;20971;-54
2022/08/07 01:36:26;;;;;;;28.07;20.48;;;;;;;21.06;88.59;94743.67;1639367;86;21183;-54
2022/08/07 01:38:54;;;;;;;29.55;21.35;;;;;;;21.05;88.91;94750.54;1675623;84;20956;-53
2022/08/07 01:41:24;;;;;;;28.38;23.25;;;;;;;21.05;89.19;94743.55;1642348;85;21124;-53
2022/08/07 01:43:52;;;;;;;29.77;23.32;;;;;;;21.03;89.82;94741.91;1668723;84;21018;-53
2022/08/07 01:46:20;;;;;;;26.82;20.90;;;;;;;21.05;90.26;94746.34;1659798;85;21015;-53
2022/08/07 01:48:49;;;;;;;24.47;20.32;;;;;;;21.04;90.29;94754.61;1679316;85;21026;-52
2022/08/07 01:51:23;;;;;;;22.75;18.50;;;;;;;21.04;90.49;94752.59;1685326;85;21002;-53
2022/08/07 01:53:54;;;;;;;25.60;20.70;;;;;;;21.07;90.41;94750.16;1665039;85;21234;-52
2022/08/07 01:56:42;;;;;;;23.05;19.42;;;;;;;21.06;90.51;94754.23;1646227;85;21443;-53
2022/08/07 01:59:31;;;;;;;21.77;17.90;;;;;;;21.04;90.42;94753.22;1611674;87;21025;-53
2022/08/07 02:02:04;;;;;;;21.10;16.45;;;;;;;21.03;90.42;94755.27;1651222;86;21483;-53
2022/08/07 02:05:01;;;;;;;18.70;14.80;;;;;;;21.00;90.34;94752.73;1662440;86;20976;-53
2022/08/07 02:07:36;;;;;;;23.02;16.80;;;;;;;21.00;90.46;94761.12;1654490;85;21132;-53
2022/08/07 02:10:05;;;;;;;19.37;16.25;;;;;;;20.96;90.42;94753.64;1632755;85;20971;-54
2022/08/07 02:12:37;;;;;;;23.62;14.55;;;;;;;20.95;90.32;94757.06;1661540;85;21143;-54
2022/08/07 02:15:08;;;;;;;16.97;14.00;;;;;;;20.95;90.21;94754.91;1664313;86;21565;-52
2022/08/07 02:17:40;;;;;;;14.73;12.23;;;;;;;20.95;90.01;94763.31;1663039;85;21015;-53
2022/08/07 02:20:09;;;;;;;11.55;10.35;;;;;;;20.94;90.10;94764.59;1652929;85;21235;-52
2022/08/07 02:22:39;;;;;;;12.55;9.88;;;;;;;20.92;89.75;94772.08;1646737;86;21027;-53
2022/08/07 02:25:08;;;;;;;10.85;9.03;;;;;;;20.92;88.92;94766.48;1642386;85;21077;-52
2022/08/07 02:27:38;;;;;;;10.28;9.08;;;;;;;20.88;88.37;94773.61;1671019;84;21098;-52
2022/08/07 02:30:07;;;;;;;9.60;8.40;;;;;;;20.83;88.25;94770.98;1678840;84;21422;-53
2022/08/07 02:32:36;;;;;;;7.72;6.67;;;;;;;20.74;88.46;94760.67;1660667;85;21299;-53
2022/08/07 02:35:06;;;;;;;7.85;7.03;;;;;;;20.68;88.61;94764.87;1661140;84;20972;-53
2022/08/07 02:37:36;;;;;;;7.83;6.47;;;;;;;20.63;88.52;94781.04;1674582;85;20966;-54
2022/08/07 02:40:07;;;;;;;10.50;8.10;;;;;;;20.56;88.28;94778.00;1644341;85;20968;-54
2022/08/07 02:42:36;;;;;;;9.35;7.10;;;;;;;20.49;88.57;94775.70;1662324;85;20971;-53
2022/08/07 02:45:05;;;;;;;8.00;5.97;;;;;;;20.51;88.87;94789.93;1653605;85;21504;-53
2022/08/07 02:47:33;;;;;;;9.78;6.83;;;;;;;20.48;88.47;94780.55;1651023;86;21050;-52
2022/08/07 02:50:07;;;;;;;10.80;6.65;;;;;;;20.49;88.54;94786.89;1654913;84;21112;-54
2022/08/07 02:52:46;;;;;;;8.20;6.50;;;;;;;20.50;88.61;94789.80;1657478;85;21015;-54
2022/08/07 02:55:26;;;;;;;9.33;6.22;;;;;;;20.51;88.33;94792.72;1658875;85;21172;-53
2022/08/07 02:57:57;;;;;;;6.47;5.42;;;;;;;20.51;88.12;94801.11;1667984;84;21274;-52
2022/08/07 03:00:25;;;;;;;6.75;5.70;;;;;;;20.48;87.96;94800.73;1663783;85;21193;-53
2022/08/07 03:02:53;;;;;;;9.05;5.90;;;;;;;20.49;88.01;94809.25;1659136;85;21530;-53
2022/08/07 03:05:22;;;;;;;7.40;5.40;;;;;;;20.48;87.94;94809.13;1594476;88;21546;-53
2022/08/07 03:07:51;;;;;;;10.13;4.85;;;;;;;20.48;87.70;94806.33;1677868;84;21068;-53
2022/08/07 03:10:20;;;;;;;10.05;5.65;;;;;;;20.49;87.57;94812.81;1662730;84;21566;-54
2022/08/07 03:12:49;;;;;;;7.55;4.85;;;;;;;20.47;87.38;94806.98;1663591;85;21117;-53
2022/08/07 03:15:18;;;;;;;5.33;4.03;;;;;;;20.44;87.04;94811.42;1652854;85;21519;-53
2022/08/07 03:17:46;;;;;;;6.95;4.30;;;;;;;20.41;86.82;94809.65;1661134;84;21450;-53
2022/08/07 03:20:14;;;;;;;6.03;4.25;;;;;;;20.41;86.72;94811.05;1653005;85;21012;-53
2022/08/07 03:22:43;;;;;;;6.15;4.67;;;;;;;20.38;86.32;94813.47;1650241;85;21128;-53
2022/08/07 03:25:12;;;;;;;8.55;3.90;;;;;;;20.33;86.39;94822.59;1660511;84;21011;-53
2022/08/07 03:27:42;;;;;;;4.87;3.87;;;;;;;20.32;86.54;94823.86;1654298;85;20998;-53
2022/08/07 03:30:12;;;;;;;6.65;4.42;;;;;;;20.35;86.71;94822.22;1665543;85;21010;-53
2022/08/07 03:32:42;;;;;;;4.87;3.77;;;;;;;20.39;86.79;94825.52;1641466;85;21016;-52
2022/08/07 03:35:13;;;;;;;7.35;4.70;;;;;;;20.44;86.44;94833.78;1662288;84;21244;-52
2022/08/07 03:37:42;;;;;;;8.20;3.85;;;;;;;20.41;85.99;94826.41;1646535;85;21019;-52
2022/08/07 03:40:11;;;;;;;4.50;3.30;;;;;;;20.40;86.11;94829.09;1658627;84;20982;-53
2022/08/07 03:42:39;;;;;;;3.47;3.00;;;;;;;20.41;85.94;94829.96;1655100;85;21036;-52
2022/08/07 03:45:09;;;;;;;6.67;2.80;;;;;;;20.44;85.77;94832.38;1647925;86;21058;-52
2022/08/07 03:47:38;;;;;;;3.65;3.08;;;;;;;20.45;85.92;94839.50;1658963;85;21593;-54
2022/08/07 03:50:07;;;;;;;3.58;2.55;;;;;;;20.51;86.32;94837.45;1664288;84;21023;-52
2022/08/07 03:52:36;;;;;;;2.30;2.10;;;;;;;20.57;86.11;94832.64;1669791;85;21565;-53
2022/08/07 03:55:06;;;;;;;3.83;2.35;;;;;;;20.62;85.99;94844.45;1686606;84;21435;-53
2022/08/07 03:57:35;;;;;;;1.65;1.30;;;;;;;20.61;85.76;94842.30;1669377;84;20971;-53
2022/08/07 04:00:04;;;;;;;2.17;1.37;;;;;;;20.61;84.00;94838.73;1646138;85;21301;-54
2022/08/07 04:02:35;;;;;;;2.50;1.67;;;;;;;20.63;82.98;94837.58;1661228;85;21014;-53
2022/08/07 04:05:04;;;;;;;2.35;1.95;;;;;;;20.68;82.53;94834.78;1670108;85;21007;-53
2022/08/07 04:07:33;;;;;;;1.98;1.70;;;;;;;20.76;80.31;94838.57;1642045;86;21089;-53
2022/08/07 04:10:00;;;;;;;2.20;2.00;;;;;;;20.80;80.37;94845.31;1649440;85;21018;-53
2022/08/07 04:12:30;;;;;;;2.47;1.67;;;;;;;20.84;80.06;94836.05;1668100;85;21143;-53
2022/08/07 04:14:58;;;;;;;1.75;1.62;;;;;;;20.86;79.29;94838.47;1677966;85;21121;-53
2022/08/07 04:17:26;;;;;;;2.35;1.87;;;;;;;20.86;78.57;94834.90;1682177;84;20971;-53
2022/08/07 04:19:56;;;;;;;2.10;1.87;;;;;;;20.86;78.52;94835.67;1671636;85;21494;-52
2022/08/07 04:22:25;;;;;;;2.00;1.47;;;;;;;20.89;77.98;94834.64;1668171;85;21018;-53
2022/08/07 04:24:52;;;;;;;4.47;2.10;;;;;;;20.89;77.60;94836.70;1647003;85;22117;-53
2022/08/07 04:27:22;;;;;;;1.57;1.40;;;;;;;20.88;77.81;94843.54;1667865;85;21050;-53
2022/08/07 04:29:50;;;;;;;2.17;1.47;;;;;;;20.88;77.27;94837.32;1666452;85;21019;-53
2022/08/07 04:32:19;;;;;;;4.65;2.00;;;;;;;20.90;77.05;94846.61;1637549;85;21019;-53
2022/08/07 04:34:49;;;;;;;4.00;2.10;;;;;;;20.91;76.86;94846.73;1636624;86;21061;-53
2022/08/07 04:37:17;;;;;;;5.28;2.45;;;;;;;20.91;75.96;94848.13;1659095;86;21767;-53
2022/08/07 04:39:46;;;;;;;5.05;2.55;;;;;;;20.88;75.94;94847.73;1663384;85;21055;-53
2022/08/07 04:42:15;;;;;;;3.70;2.35;;;;;;;20.88;75.90;94854.73;1642399;86;21086;-52
2022/08/07 04:44:43;;;;;;;2.55;2.35;;;;;;;20.86;75.99;94861.47;1662947;85;21013;-52
2022/08/07 04:47:14;;;;;;;2.95;2.05;;;;;;;20.81;76.15;94857.40;1652812;84;21299;-53
2022/08/07 04:50:04;;;;;;;2.20;1.92;;;;;;;20.77;75.96;94867.31;1674723;84;20996;-55
2022/08/07 04:52:42;;;;;;;1.90;1.70;;;;;;;20.69;75.87;94867.69;1653622;85;20983;-54
2022/08/07 04:55:32;;;;;;;1.90;1.50;;;;;;;20.62;76.07;94867.59;1668891;85;21009;-52
2022/08/07 04:58:08;;;;;;;2.35;1.72;;;;;;;20.57;76.30;94876.72;1666983;84;21026;-53
2022/08/07 05:00:56;;;;;;;2.37;1.62;;;;;;;20.47;76.20;94871.89;1664281;85;21077;-54
2022/08/07 05:03:41;;;;;;;2.65;1.72;;;;;;;20.38;76.45;94870.77;1665969;84;21150;-53
2022/08/07 05:06:20;;;;;;;1.80;1.70;;;;;;;20.29;76.81;94876.58;1655022;84;20972;-53
2022/08/07 05:09:04;;;;;;;2.65;1.72;;;;;;;20.22;76.98;94877.09;1655396;85;21083;-53
2022/08/07 05:11:46;;;;;;;2.77;1.80;;;;;;;20.19;77.33;94880.91;1664752;85;20979;-53
2022/08/07 05:14:37;;;;;;;2.60;1.62;;;;;;;20.14;77.23;94885.20;1682053;84;21123;-53
2022/08/07 05:17:06;;;;;;;2.45;1.55;;;;;;;20.10;77.34;94895.09;1659906;84;21286;-53
2022/08/07 05:19:37;;;;;;;2.60;1.40;;;;;;;20.03;77.34;94893.42;1668467;85;21161;-53
2022/08/07 05:22:07;;;;;;;1.85;1.50;;;;;;;19.96;77.59;94891.85;1663943;85;20958;-52
2022/08/07 05:24:37;;;;;;;2.25;1.62;;;;;;;19.93;77.66;94901.24;1659464;85;21057;-52
2022/08/07 05:27:06;;;;;;;3.40;1.55;;;;;;;19.92;77.85;94903.16;1664748;84;21007;-52
2022/08/07 05:29:35;;;;;;;1.87;1.40;;;;;;;19.92;77.96;94898.97;1656432;85;21374;-53
2022/08/07 05:32:06;;;;;;;1.90;1.35;;;;;;;19.92;78.22;94903.91;1657780;85;20966;-53
2022/08/07 05:34:35;;;;;;;1.82;1.40;;;;;;;19.96;78.12;94903.67;1657562;85;20975;-52
2022/08/07 05:37:04;;;;;;;2.08;1.47;;;;;;;19.98;77.95;94907.50;1643998;86;20979;-53
2022/08/07 05:39:38;;;;;;;2.12;1.30;;;;;;;19.98;78.02;94903.31;1643537;86;21525;-53
2022/08/07 05:42:06;;;;;;;3.52;1.50;;;;;;;20.03;78.20;94910.19;1641003;85;21220;-53
2022/08/07 05:44:37;;;;;;;2.02;1.27;;;;;;;20.06;78.67;94912.74;1669129;85;21487;-54
2022/08/07 05:47:06;;;;;;;1.15;1.00;;;;;;;20.10;78.84;94913.25;1634664;86;20946;-53
2022/08/07 05:49:34;;;;;;;2.17;1.20;;;;;;;20.12;79.08;94909.32;1649107;85;21459;-52
2022/08/07 05:52:04;;;;;;;4.78;1.40;;;;;;;20.17;79.11;94916.97;1658266;85;21467;-54
2022/08/07 05:54:34;;;;;;;2.47;1.35;;;;;;;20.23;78.88;94921.28;1661789;85;21843;-54
2022/08/07 05:57:03;;;;;;;3.10;1.55;;;;;;;20.23;78.78;94925.47;1654618;85;21008;-54
2022/08/07 05:59:35;;;;;;;2.05;1.17;;;;;;;20.24;78.86;94927.02;1669492;85;21055;-53
2022/08/07 06:02:04;;;;;;;2.12;1.32;;;;;;;20.25;78.47;94930.56;1675933;85;21026;-54
2022/08/07 06:04:38;;;;;;;1.25;1.12;;;;;;;20.26;78.18;94937.05;1679185;84;21010;-52
2022/08/07 06:07:06;;;;;;;2.47;1.40;;;;;;;20.29;78.27;94937.44;1644533;86;22574;-53
2022/08/07 06:09:36;;;;;;;3.30;1.35;;;;;;;20.34;78.14;94934.53;1625168;86;21064;-53
2022/08/07 06:12:06;;;;;;;1.52;1.12;;;;;;;20.38;78.08;94937.19;1657856;85;20939;-54
2022/08/07 06:14:34;;;;;;;2.40;1.00;;;;;;;20.38;77.77;94926.66;1672339;85;21145;-53
2022/08/07 06:17:04;;;;;;;2.65;1.30;;;;;;;20.40;77.69;94934.64;1665615;84;21023;-55
2022/08/07 06:19:34;;;;;;;3.40;1.30;;;;;;;20.43;77.40;94935.05;1677287;85;21825;-53
2022/08/07 06:22:02;;;;;;;3.90;1.25;;;;;;;20.48;77.31;94933.52;1679321;84;21450;-54
2022/08/07 06:24:31;;;;;;;2.25;1.27;;;;;;;20.47;77.03;94934.78;1657756;86;21155;-53
2022/08/07 06:27:00;;;;;;;1.75;1.00;;;;;;;20.46;76.60;94920.68;1649527;85;21027;-54
2022/08/07 06:29:28;;;;;;;0.88;0.88;;;;;;;20.44;76.73;94929.59;1659824;86;21066;-53
2022/08/07 06:31:56;;;;;;;2.25;1.07;;;;;;;20.46;76.68;94934.66;1641550;86;21213;-53
2022/08/07 06:34:25;;;;;;;1.22;1.00;;;;;;;20.46;76.35;94938.85;1661284;85;21053;-53
2022/08/07 06:36:55;;;;;;;1.37;1.15;;;;;;;20.42;76.11;94935.55;1672662;85;20962;-53
2022/08/07 06:39:25;;;;;;;0.90;0.90;;;;;;;20.35;76.27;94940.25;1648595;84;21000;-53
2022/08/07 06:42:03;;;;;;;1.40;1.10;;;;;;;20.32;76.39;94944.03;1674306;85;20990;-54
2022/08/07 06:44:37;;;;;;;0.70;0.70;;;;;;;20.26;76.55;94943.27;1663502;84;21232;-53
2022/08/07 06:47:06;;;;;;;1.25;1.10;;;;;;;20.16;77.13;94947.58;1649505;86;20991;-53
2022/08/07 06:49:35;;;;;;;0.85;0.85;;;;;;;20.12;77.28;94947.03;1648584;86;20963;-53
2022/08/07 06:52:04;;;;;;;2.60;1.10;;;;;;;20.11;77.20;94944.11;1658450;85;20979;-55
2022/08/07 06:54:32;;;;;;;0.90;0.90;;;;;;;20.13;77.26;94936.77;1664174;84;21030;-53
2022/08/07 06:57:00;;;;;;;1.50;1.10;;;;;;;20.17;77.32;94939.32;1632696;85;21135;-53
2022/08/07 06:59:34;;;;;;;1.52;1.10;;;;;;;20.22;77.24;94941.36;1654314;85;21003;-54
2022/08/07 07:02:05;;;;;;;1.20;1.00;;;;;;;20.26;76.98;94944.66;1677871;85;20995;-53
2022/08/07 07:04:33;;;;;;;1.17;1.07;;;;;;;20.24;76.96;94943.02;1647649;85;21014;-55
2022/08/07 07:07:06;;;;;;;13.93;9.05;;;;;;;20.22;76.85;94945.55;1663243;84;21023;-53
2022/08/07 07:09:34;;;;;;;1.52;1.42;;;;;;;20.22;76.62;94948.34;1653758;85;21200;-53
2022/08/07 07:12:26;;;;;;;1.20;1.10;;;;;;;20.22;76.75;94951.14;1647756;85;21015;-54
2022/08/07 07:15:06;;;;;;;2.08;1.17;;;;;;;20.25;76.52;94954.31;1659872;86;20983;-53
2022/08/07 07:17:47;;;;;;;1.17;1.07;;;;;;;20.21;76.26;94955.95;1640844;85;21012;-53
2022/08/07 07:20:18;;;;;;;1.77;1.12;;;;;;;20.20;75.25;94952.28;1645694;85;21567;-53
2022/08/07 07:22:46;;;;;;;2.65;1.30;;;;;;;20.18;75.15;94954.17;1664960;84;21094;-55
2022/08/07 07:25:14;;;;;;;1.17;1.07;;;;;;;20.17;75.41;94956.09;1639608;86;21555;-53
2022/08/07 07:27:51;;;;;;;1.37;1.10;;;;;;;20.24;75.70;94957.76;1659200;85;20978;-54
2022/08/07 07:30:21;;;;;;;1.15;1.05;;;;;;;20.29;75.62;94965.38;1663040;84;21022;-54
2022/08/07 07:32:49;;;;;;;1.20;1.10;;;;;;;20.35;75.27;94968.95;1685485;84;21026;-57
2022/08/07 07:35:17;;;;;;;1.65;1.27;;;;;;;20.37;75.02;94973.39;1666725;84;21098;-55
2022/08/07 07:37:45;;;;;;;2.22;1.70;;;;;;;20.37;75.23;94965.66;1674032;84;21490;-53
2022/08/07 07:40:15;;;;;;;2.62;1.45;;;;;;;20.36;74.93;94966.28;1671883;85;20991;-56
2022/08/07 07:42:44;;;;;;;2.17;1.35;;;;;;;20.40;75.06;94970.23;1666390;85;20984;-55
2022/08/07 07:45:12;;;;;;;1.70;1.20;;;;;;;20.46;74.79;94979.38;1659809;84;21141;-54
2022/08/07 07:47:42;;;;;;;1.95;1.27;;;;;;;20.48;74.82;94983.83;1669537;84;21243;-54
2022/08/07 07:50:12;;;;;;;1.67;1.37;;;;;;;20.53;74.42;94979.66;1672539;84;21026;-54
2022/08/07 07:52:40;;;;;;;1.17;1.12;;;;;;;20.55;74.35;94986.15;1645861;86;21510;-54
2022/08/07 07:55:09;;;;;;;2.40;1.27;;;;;;;20.60;73.36;94981.94;1663506;85;21086;-54
2022/08/07 07:57:38;;;;;;;1.50;1.30;;;;;;;20.61;73.10;94986.29;1658532;85;20999;-54
2022/08/07 08:00:08;;;;;;;2.00;1.20;;;;;;;20.65;73.53;94981.83;1672123;84;21407;-53
2022/08/07 08:02:38;;;;;;;1.45;1.32;;;;;;;20.74;73.14;94980.95;1662340;84;21104;-52
2022/08/07 08:05:07;;;;;;;1.50;1.40;;;;;;;20.87;72.27;94976.27;1649563;86;20988;-55
2022/08/07 08:07:37;;;;;;;2.00;1.22;;;;;;;20.98;71.28;94975.66;1656140;85;20976;-54
2022/08/07 08:10:06;;;;;;;1.57;1.40;;;;;;;21.09;71.66;94977.70;1648040;87;21093;-54
2022/08/07 08:12:35;;;;;;;3.20;1.37;;;;;;;21.23;70.89;94982.23;1654654;86;21088;-55
2022/08/07 08:15:03;;;;;;;1.52;1.30;;;;;;;21.32;70.10;94975.73;1660679;86;20963;-54
2022/08/07 08:17:31;;;;;;;1.75;1.30;;;;;;;21.35;70.26;94974.73;1653846;85;21001;-54
2022/08/07 08:20:01;;;;;;;1.45;1.25;;;;;;;21.34;69.08;94983.02;1676237;84;21033;-54
2022/08/07 08:28:04;;;;;;;2.87;1.57;;;;;;;21.32;69.05;94995.33;1625973;87;21132;-54
2022/08/07 08:30:33;;;;;;;2.17;1.40;;;;;;;21.23;68.13;94983.64;1669621;84;21063;-55
2022/08/07 08:33:02;;;;;;;1.87;1.25;;;;;;;21.14;68.71;94989.52;1630286;85;21030;-54
2022/08/07 08:35:31;;;;;;;1.65;1.20;;;;;;;21.08;68.51;94987.36;1645511;85;21558;-54
2022/08/07 08:38:01;;;;;;;1.77;1.40;;;;;;;20.98;69.08;94993.07;1654497;85;21136;-54
2022/08/07 08:40:43;;;;;;;1.75;1.50;;;;;;;20.96;69.34;94995.63;1621731;86;21031;-53
2022/08/07 08:43:25;;;;;;;2.50;1.62;;;;;;;20.96;69.35;94997.02;1664760;85;21022;-54
2022/08/07 08:46:18;;;;;;;2.40;1.92;;;;;;;20.99;69.30;95004.39;1669248;84;21436;-54
2022/08/07 08:48:57;;;;;;;2.00;1.60;;;;;;;21.02;68.79;94999.17;1629742;85;21014;-53
2022/08/07 08:51:38;;;;;;;2.17;1.52;;;;;;;20.98;68.41;95005.66;1673848;84;21182;-54
2022/08/07 08:54:30;;;;;;;2.12;1.40;;;;;;;20.87;68.00;95010.62;1667255;84;20999;-53
2022/08/07 08:57:04;;;;;;;1.47;1.37;;;;;;;20.79;68.58;95011.59;1660282;85;21478;-54
2022/08/07 08:59:49;;;;;;;1.45;1.35;;;;;;;20.74;68.61;95008.91;1667098;84;21067;-54
2022/08/07 09:02:31;;;;;;;1.30;1.10;;;;;;;20.72;68.92;95008.66;1662945;84;21034;-54
2022/08/07 09:05:23;;;;;;;1.40;1.30;;;;;;;20.75;68.67;95014.63;1653680;85;21188;-55
2022/08/07 09:08:26;;;;;;;1.50;1.20;;;;;;;20.79;68.45;95009.58;1588310;87;21184;-53
2022/08/07 09:11:00;;;;;;;;;;;;;;;20.74;68.56;95013.11;1615623;87;20994;-54
2022/08/07 09:14:08;;;;;;;6.22;1.50;;;;;;;20.69;68.81;95011.08;1624985;87;20484;-54
2022/08/07 09:17:04;;;;;;;1.67;1.30;;;;;;;20.66;68.67;95014.11;1617358;87;20955;-55
2022/08/07 09:19:50;;;;;;;1.40;1.30;;;;;;;20.65;68.59;95015.38;1614073;88;21167;-53
2022/08/07 09:22:59;;;;;;;2.00;1.57;;;;;;;20.58;68.41;95020.08;1607851;88;21442;-54
2022/08/07 09:25:44;;;;;;;1.40;1.30;;;;;;;20.55;68.35;95016.91;1607819;87;21056;-53
2022/08/07 09:28:18;;;;;;;2.05;1.42;;;;;;;20.50;68.88;95021.82;1651872;85;21055;-54
2022/08/07 09:31:03;;;;;;;3.25;1.10;;;;;;;20.44;68.81;95024.63;1662730;85;20984;-54
2022/08/07 09:34:08;;;;;;;1.62;1.27;;;;;;;20.46;68.98;95019.91;1661577;85;21278;-54
2022/08/07 09:36:56;;;;;;;2.22;1.98;;;;;;;20.53;69.37;95018.79;1668353;85;20971;-54
2022/08/07 09:39:41;;;;;;;2.92;1.95;;;;;;;20.56;68.86;95021.22;1678005;82;21652;-55
2022/08/07 09:42:35;;;;;;;3.17;2.20;;;;;;;20.61;68.54;95024.66;1649985;84;21058;-54
2022/08/07 09:45:17;;;;;;;2.70;1.82;;;;;;;20.72;68.52;95017.70;1645281;85;20971;-55
2022/08/07 09:48:23;;;;;;;2.12;1.90;;;;;;;20.88;68.11;95019.76;1657253;84;21170;-54
2022/08/07 09:51:08;;;;;;;4.33;3.47;;;;;;;21.02;67.64;95015.95;1678816;84;21521;-56
2022/08/07 09:53:37;;;;;;;9.88;6.45;;;;;;;21.23;67.27;95018.00;1661234;84;21455;-53
2022/08/07 09:56:39;;;;;;;10.30;6.45;;;;;;;21.35;66.43;95017.36;1660967;85;21118;-54
2022/08/07 09:59:34;;;;;;;11.93;7.17;;;;;;;21.42;66.21;95016.20;1656320;85;20971;-55
2022/08/07 10:02:33;;;;;;;7.22;4.70;;;;;;;21.50;66.37;95014.40;1640116;86;21334;-53
2022/08/07 10:05:19;;;;;;;7.22;3.92;;;;;;;21.55;65.20;95012.25;1655537;85;21471;-54
2022/08/07 10:08:12;;;;;;;10.48;6.75;;;;;;;21.55;65.56;95015.05;1655936;84;21061;-54
2022/08/07 10:11:27;;;;;;;18.90;10.53;;;;;;;21.56;65.36;95013.00;1658728;85;21009;-54
2022/08/07 10:14:19;;;;;;;10.50;6.33;;;;;;;21.60;65.45;95016.29;1676053;85;21015;-55
2022/08/07 10:17:38;;;;;;;15.13;9.48;;;;;;;21.66;64.78;95015.69;1674894;85;21274;-54
2022/08/07 10:21:01;;;;;;;14.98;9.85;;;;;;;21.69;65.01;95006.26;1657114;85;21295;-53
2022/08/07 10:23:55;;;;;;;9.63;6.85;;;;;;;21.71;65.18;95013.51;1666927;84;21569;-54
2022/08/07 10:26:46;;;;;;;8.73;5.78;;;;;;;21.76;64.32;95005.72;1654594;85;20987;-54
2022/08/07 10:29:43;;;;;;;4.60;3.50;;;;;;;21.76;64.19;95015.52;1674607;84;21098;-54
2022/08/07 10:33:00;;;;;;;5.60;3.15;;;;;;;21.74;64.38;95008.27;1631288;86;21200;-55
2022/08/07 10:35:51;;;;;;;7.42;5.92;;;;;;;21.62;64.61;95010.97;1618381;85;21069;-54
2022/08/07 10:38:44;;;;;;;6.03;3.72;;;;;;;21.56;64.18;95005.38;1652336;85;21007;-54
2022/08/07 10:41:20;;;;;;;8.30;5.25;;;;;;;21.63;64.52;95006.92;1658329;85;21066;-54
2022/08/07 10:43:56;;;;;;;6.80;5.20;;;;;;;21.67;63.93;95006.02;1659187;86;21169;-54
2022/08/07 10:46:29;;;;;;;3.40;2.67;;;;;;;21.70;64.11;95007.78;1647055;86;21765;-54
2022/08/07 10:49:17;;;;;;;3.77;2.77;;;;;;;21.77;63.62;94996.81;1602238;87;20974;-54
2022/08/07 10:52:23;;;;;;;1.70;1.55;;;;;;;21.85;62.98;94999.85;1645788;87;20979;-54
2022/08/07 10:54:58;;;;;;;2.70;1.47;;;;;;;21.84;63.19;94998.33;1621770;88;21014;-54
2022/08/07 10:57:49;;;;;;;1.60;1.32;;;;;;;21.83;62.93;94994.75;1598572;87;20993;-55
2022/08/07 11:00:18;;;;;;;2.05;1.42;;;;;;;21.81;62.96;94999.36;1672456;85;21321;-54
2022/08/07 11:03:17;;;;;;;5.58;2.12;;;;;;;21.80;62.74;94992.23;1652028;85;21009;-55
2022/08/07 11:05:50;;;;;;;4.22;1.52;;;;;;;21.77;62.93;95000.24;1666406;85;20978;-54
2022/08/07 11:08:56;;;;;;;1.82;1.35;;;;;;;21.76;63.09;95000.90;1643412;85;21066;-54
2022/08/07 11:11:38;;;;;;;1.10;1.00;;;;;;;21.79;62.70;94996.28;1661921;86;21035;-54
2022/08/07 11:14:23;;;;;;;2.33;1.35;;;;;;;21.83;62.06;94996.80;1665101;85;21746;-54
2022/08/07 11:16:59;;;;;;;1.35;1.12;;;;;;;21.78;61.96;94998.97;1665375;84;21141;-55
2022/08/07 11:19:38;;;;;;;1.02;1.00;;;;;;;21.78;62.28;94998.34;1648372;85;21093;-54
2022/08/07 11:22:16;;;;;;;1.60;1.00;;;;;;;21.83;62.08;94998.20;1665642;85;21015;-54
2022/08/07 11:25:22;;;;;;;1.20;1.10;;;;;;;21.85;61.73;94989.39;1638854;84;21069;-55
2022/08/07 11:28:32;;;;;;;1.20;1.10;;;;;;;21.91;62.24;94987.98;1646743;86;21210;-54
2022/08/07 11:31:07;;;;;;;1.45;1.17;;;;;;;22.11;61.32;94986.36;1667027;85;21091;-54
2022/08/07 11:33:43;;;;;;;4.47;1.20;;;;;;;22.35;61.73;94986.52;1678341;85;20974;-54
2022/08/07 11:36:40;;;;;;;0.95;0.90;;;;;;;22.54;60.98;94983.26;1655327;84;21535;-54
2022/08/07 11:39:53;;;;;;;1.25;0.93;;;;;;;22.65;60.04;94990.19;1642607;85;21094;-54
2022/08/07 11:42:50;;;;;;;1.02;1.00;;;;;;;22.59;59.82;94983.08;1678608;85;21230;-55
2022/08/07 11:45:29;;;;;;;0.80;0.80;;;;;;;22.56;60.30;94976.48;1658461;84;21063;-54
2022/08/07 11:48:20;;;;;;;0.80;0.80;;;;;;;22.72;60.19;94972.81;1662721;85;21626;-55
2022/08/07 11:51:21;;;;;;;0.80;0.80;;;;;;;22.93;59.62;94968.95;1661549;84;21010;-54
2022/08/07 11:54:04;;;;;;;1.20;1.10;;;;;;;23.06;58.90;94963.49;1681472;84;21014;-54
2022/08/07 11:56:46;;;;;;;;;;;;;;;23.15;58.03;94965.36;1658375;85;21257;-54
2022/08/07 11:59:56;;;;;;;1.17;0.95;;;;;;;23.19;57.79;94967.23;1674878;84;20187;-56
2022/08/07 12:02:58;;;;;;;2.25;0.80;;;;;;;23.17;57.79;94954.36;1658971;84;21064;-54
2022/08/07 12:05:40;;;;;;;1.43;1.00;;;;;;;23.15;58.00;94957.56;1646604;85;21099;-54
2022/08/07 12:08:16;;;;;;;5.15;1.10;;;;;;;23.31;58.06;94952.44;1655335;86;21773;-54
2022/08/07 12:10:55;;;;;;;1.92;1.10;;;;;;;23.72;57.23;94950.25;1652876;85;21327;-54
2022/08/07 12:13:48;;;;;;;2.27;1.82;;;;;;;24.24;56.56;94938.77;1654072;85;21621;-56
2022/08/07 12:16:23;;;;;;;1.37;1.27;;;;;;;24.81;54.89;94932.59;1655559;84;20980;-55